Time;durP1;ratioP1;P1;durP2;ratioP2;P2;SDS_P1;SDS_P2;PMS_P1;PMS_P2;Temp;Humidity;BMP_temperature;BMP_pressure;BME280_temperature;BME280_humidity;BME280_pressure;Samples;Min_cycle;Max_cycle;Signal;HPM_P1;HPM_P2
2023/12/21 00:01:37;;;;;;;77.57;73.97;;;;;;;10.27;71.56;100727.91;5011531;28;20087;-69
2023/12/21 00:04:03;;;;;;;76.97;73.55;;;;;;;10.27;71.43;100728.72;5012193;28;20033;-69
2023/12/21 00:06:29;;;;;;;76.25;72.88;;;;;;;10.29;71.50;100715.03;5033999;28;20083;-70
2023/12/21 00:08:55;;;;;;;74.47;71.18;;;;;;;10.28;71.59;100703.41;5016826;28;20172;-68
2023/12/21 00:11:20;;;;;;;78.70;75.10;;;;;;;10.28;71.60;100695.31;5011926;28;20128;-68
2023/12/21 00:13:46;;;;;;;78.50;74.93;;;;;;;10.29;71.31;100694.22;5011731;28;20493;-69
2023/12/21 00:16:12;;;;;;;80.95;76.95;;;;;;;10.29;71.62;100696.13;5017354;28;20037;-69
2023/12/21 00:18:37;;;;;;;77.78;74.20;;;;;;;10.29;71.71;100688.84;5011604;28;20041;-69
2023/12/21 00:21:03;;;;;;;75.95;72.57;;;;;;;10.30;71.67;100685.06;5010078;28;20533;-70
2023/12/21 00:23:29;;;;;;;79.82;76.03;;;;;;;10.30;71.49;100673.44;5030968;28;20519;-70
2023/12/21 00:25:54;;;;;;;76.95;73.35;;;;;;;10.31;71.64;100669.72;5031229;28;20464;-69
2023/12/21 00:28:19;;;;;;;75.43;71.80;;;;;;;10.30;71.39;100666.16;5044369;28;20047;-69
2023/12/21 00:30:46;;;;;;;77.53;73.85;;;;;;;10.30;71.63;100666.16;5022992;28;20104;-69
2023/12/21 00:33:11;;;;;;;82.93;78.68;;;;;;;10.32;71.67;100652.44;5016312;28;20371;-69
2023/12/21 00:35:37;;;;;;;78.22;74.65;;;;;;;10.33;71.55;100659.47;5015458;28;20140;-69
2023/12/21 00:38:03;;;;;;;82.50;78.70;;;;;;;10.34;71.68;100653.81;5041222;28;20060;-69
2023/12/21 00:40:28;;;;;;;77.18;73.78;;;;;;;10.34;71.47;100659.22;5029586;28;20545;-67
2023/12/21 00:42:53;;;;;;;82.10;78.45;;;;;;;10.35;71.78;100646.53;5033617;28;20482;-70
2023/12/21 00:45:19;;;;;;;78.80;75.28;;;;;;;10.35;71.64;100633.84;5035085;28;20041;-70
2023/12/21 00:47:44;;;;;;;82.70;78.70;;;;;;;10.37;71.61;100614.72;5034698;28;20049;-69
2023/12/21 00:50:10;;;;;;;81.70;77.07;;;;;;;10.39;71.46;100604.50;5019737;28;20526;-69
2023/12/21 00:52:36;;;;;;;76.85;73.38;;;;;;;10.42;71.52;100603.19;5015234;28;20458;-68
2023/12/21 00:55:02;;;;;;;79.85;76.25;;;;;;;10.43;71.52;100596.72;5015001;28;20164;-68
2023/12/21 00:57:27;;;;;;;78.15;74.63;;;;;;;10.43;71.45;100602.13;5028735;28;20082;-68
2023/12/21 00:59:53;;;;;;;78.03;74.60;;;;;;;10.44;71.36;100598.38;5033244;28;20037;-68
2023/12/21 01:02:18;;;;;;;78.65;74.88;;;;;;;10.43;71.51;100607.50;5034910;28;20363;-69
2023/12/21 01:04:43;;;;;;;83.53;78.60;;;;;;;10.42;71.27;100595.09;5033508;28;20037;-68
2023/12/21 01:07:09;;;;;;;77.63;74.13;;;;;;;10.44;71.47;100584.88;5032571;28;20099;-69
2023/12/21 01:09:34;;;;;;;79.20;75.63;;;;;;;10.43;71.60;100585.91;5030589;28;20464;-69
2023/12/21 01:12:00;;;;;;;81.20;76.97;;;;;;;10.43;71.43;100575.13;5030447;28;20033;-68
2023/12/21 01:14:25;;;;;;;81.85;78.05;;;;;;;10.42;71.31;100568.09;5020548;28;20037;-69
2023/12/21 01:16:50;;;;;;;78.65;74.95;;;;;;;10.41;71.30;100567.28;5021613;28;20029;-68
2023/12/21 01:19:16;;;;;;;80.30;76.22;;;;;;;10.38;71.64;100565.88;5033530;28;20385;-69
2023/12/21 01:21:41;;;;;;;80.65;76.95;;;;;;;10.37;71.64;100571.53;5015553;28;20082;-68
2023/12/21 01:24:06;;;;;;;80.85;77.28;;;;;;;10.37;71.44;100566.13;5032134;28;20117;-68
2023/12/21 01:26:32;;;;;;;77.50;72.95;;;;;;;10.38;71.62;100571.28;5033093;28;20481;-69
2023/12/21 01:28:57;;;;;;;81.43;77.25;;;;;;;10.40;71.71;100561.03;5031069;28;20371;-68
2023/12/21 01:31:22;;;;;;;83.05;78.72;;;;;;;10.42;71.52;100558.09;5015164;28;20108;-70
2023/12/21 01:33:48;;;;;;;84.30;80.50;;;;;;;10.45;71.48;100556.78;5030741;28;20058;-69
2023/12/21 01:36:13;;;;;;;80.55;76.95;;;;;;;10.45;71.39;100540.59;5018631;28;20099;-70
2023/12/21 01:38:39;;;;;;;81.18;77.40;;;;;;;10.45;71.30;100554.09;5035534;28;20037;-69
2023/12/21 01:41:04;;;;;;;79.20;75.65;;;;;;;10.46;71.28;100542.22;5014412;28;20187;-69
2023/12/21 01:43:29;;;;;;;84.35;80.22;;;;;;;10.46;71.50;100543.06;5021304;28;20038;-70
2023/12/21 01:45:57;;;;;;;83.10;79.30;;;;;;;10.46;71.32;100544.91;5013752;28;20084;-68
2023/12/21 01:48:23;;;;;;;78.43;74.47;;;;;;;10.46;71.45;100543.06;5027414;28;20044;-70
2023/12/21 01:50:50;;;;;;;81.03;77.22;;;;;;;10.48;71.33;100546.34;5028127;28;20029;-69
2023/12/21 01:53:16;;;;;;;80.53;76.93;;;;;;;10.48;71.47;100530.13;5014508;28;20038;-69
2023/12/21 01:55:44;;;;;;;81.50;77.70;;;;;;;10.50;71.24;100519.88;5014005;28;20041;-68
2023/12/21 01:58:10;;;;;;;83.32;78.85;;;;;;;10.52;71.31;100535.84;5031440;28;20025;-69
2023/12/21 02:00:36;;;;;;;82.85;78.13;;;;;;;10.53;71.42;100527.50;5022957;28;20038;-69
2023/12/21 02:03:01;;;;;;;84.75;80.30;;;;;;;10.55;71.20;100529.94;5013325;28;20394;-69
2023/12/21 02:05:27;;;;;;;80.47;76.50;;;;;;;10.56;71.14;100527.00;5014152;28;20034;-69
2023/12/21 02:07:52;;;;;;;85.50;80.60;;;;;;;10.55;71.12;100538.84;5020261;28;20458;-67
2023/12/21 02:10:18;;;;;;;82.13;77.82;;;;;;;10.54;71.20;100541.81;5030054;28;20040;-69
2023/12/21 02:12:43;;;;;;;81.90;78.10;;;;;;;10.56;71.26;100528.88;5013650;28;20070;-68
2023/12/21 02:15:09;;;;;;;88.43;83.88;;;;;;;10.56;71.17;100516.19;5013961;28;20040;-70
2023/12/21 02:17:36;;;;;;;86.90;82.90;;;;;;;10.57;71.17;100507.03;5021936;28;20033;-70
2023/12/21 02:20:04;;;;;;;81.40;77.82;;;;;;;10.58;71.16;100507.81;5025503;28;20021;-68
2023/12/21 02:22:33;;;;;;;81.13;77.28;;;;;;;10.57;71.23;100509.72;5014231;28;20482;-69
2023/12/21 02:24:58;;;;;;;;;;;;;;;10.58;71.04;100505.97;5013512;28;20394;-68
2023/12/21 02:27:24;;;;;;;77.22;73.78;;;;;;;10.58;71.13;100497.03;5023162;28;19924;-69
2023/12/21 02:29:49;;;;;;;80.25;76.40;;;;;;;10.55;71.21;100495.63;5013956;28;20030;-67
2023/12/21 02:32:14;;;;;;;79.47;75.88;;;;;;;10.55;71.30;100484.03;5041341;28;20469;-68
2023/12/21 02:34:40;;;;;;;80.90;77.30;;;;;;;10.55;71.11;100484.84;5013037;28;20136;-68
2023/12/21 02:37:05;;;;;;;81.63;77.63;;;;;;;10.56;71.33;100482.97;5023028;28;20034;-70
2023/12/21 02:39:31;;;;;;;83.03;78.88;;;;;;;10.57;71.15;100482.72;5035154;28;20033;-68
2023/12/21 02:41:56;;;;;;;81.28;77.60;;;;;;;10.57;70.94;100482.72;5013193;28;20117;-68
2023/12/21 02:44:21;;;;;;;80.95;77.28;;;;;;;10.57;71.02;100468.41;5017021;28;20442;-69
2023/12/21 02:46:47;;;;;;;82.38;78.63;;;;;;;10.58;71.01;100464.63;5014302;28;20041;-69
2023/12/21 02:49:12;;;;;;;83.65;79.50;;;;;;;10.56;71.26;100459.47;5018441;28;20095;-69
2023/12/21 02:51:37;;;;;;;80.97;76.82;;;;;;;10.57;71.11;100449.50;5013485;28;20040;-70
2023/12/21 02:54:03;;;;;;;82.38;78.25;;;;;;;10.57;71.24;100453.00;5012425;28;20038;-69
2023/12/21 02:56:28;;;;;;;81.60;77.78;;;;;;;10.57;71.33;100450.31;5028600;28;20041;-67
2023/12/21 02:58:54;;;;;;;81.55;77.72;;;;;;;10.59;71.39;100447.34;5018549;28;20037;-68
2023/12/21 03:01:19;;;;;;;79.32;75.60;;;;;;;10.58;71.13;100457.34;5013213;28;20037;-67
2023/12/21 03:03:44;;;;;;;82.88;79.00;;;;;;;10.58;71.41;100453.81;5015679;28;20049;-70
2023/12/21 03:06:10;;;;;;;78.50;75.00;;;;;;;10.59;71.37;100452.75;5013243;28;20050;-68
2023/12/21 03:08:35;;;;;;;81.68;77.43;;;;;;;10.60;71.21;100455.19;5016871;28;20032;-70
2023/12/21 03:11:01;;;;;;;81.72;77.55;;;;;;;10.60;71.38;100447.09;5012377;28;20069;-68
2023/12/21 03:13:26;;;;;;;80.15;76.47;;;;;;;10.60;71.25;100436.28;5022599;28;20033;-69
2023/12/21 03:15:51;;;;;;;79.53;75.82;;;;;;;10.60;71.29;100400.38;5019209;28;20441;-67
2023/12/21 03:18:17;;;;;;;83.47;79.68;;;;;;;10.59;71.18;100374.44;5014989;28;20030;-71
2023/12/21 03:20:42;;;;;;;81.25;77.15;;;;;;;10.58;71.31;100386.28;5029399;28;20140;-69
2023/12/21 03:23:08;;;;;;;82.63;78.93;;;;;;;10.57;71.43;100366.56;5030007;28;20037;-70
2023/12/21 03:25:33;;;;;;;81.18;77.35;;;;;;;10.57;71.34;100368.47;5012739;28;20661;-69
2023/12/21 03:27:59;;;;;;;81.88;78.05;;;;;;;10.57;71.38;100361.16;5012382;28;20041;-69
2023/12/21 03:30:25;;;;;;;81.47;77.65;;;;;;;10.59;71.37;100369.84;5032196;28;20037;-69
2023/12/21 03:32:50;;;;;;;86.43;82.35;;;;;;;10.58;71.18;100368.22;5022734;28;20497;-69
2023/12/21 03:35:15;;;;;;;86.13;81.72;;;;;;;10.60;71.30;100371.47;5012353;28;20140;-68
2023/12/21 03:37:41;;;;;;;78.93;75.45;;;;;;;10.62;71.31;100357.72;5012309;28;20497;-69
2023/12/21 03:40:07;;;;;;;84.97;80.97;;;;;;;10.61;71.35;100337.19;5024459;28;20038;-68
2023/12/21 03:42:32;;;;;;;82.10;78.30;;;;;;;10.62;71.59;100325.31;5015470;28;20045;-68
2023/12/21 03:44:58;;;;;;;83.47;79.55;;;;;;;10.63;71.29;100320.72;5012013;28;20030;-68
2023/12/21 03:47:23;;;;;;;78.25;74.45;;;;;;;10.64;71.05;100335.88;5020869;28;20746;-68
2023/12/21 03:49:49;;;;;;;81.65;77.63;;;;;;;10.63;71.35;100329.63;5012016;28;20030;-68
2023/12/21 03:52:15;;;;;;;81.82;78.13;;;;;;;10.63;71.21;100326.13;5027215;28;20124;-69
2023/12/21 03:54:40;;;;;;;83.53;79.07;;;;;;;10.63;71.17;100321.53;5030613;28;20041;-70
2023/12/21 03:57:06;;;;;;;83.97;80.10;;;;;;;10.64;71.24;100320.47;5030034;28;20029;-69
2023/12/21 03:59:34;;;;;;;85.15;81.40;;;;;;;10.65;71.15;100305.88;5017534;28;20035;-70
2023/12/21 04:01:59;;;;;;;81.90;78.15;;;;;;;10.65;70.97;100297.78;5029654;28;20046;-69
2023/12/21 04:04:25;;;;;;;82.28;77.90;;;;;;;10.65;71.24;100308.59;5012244;28;20037;-69
2023/12/21 04:06:50;;;;;;;83.15;79.22;;;;;;;10.66;71.31;100302.13;5025043;28;20368;-67
2023/12/21 04:09:16;;;;;;;83.60;79.60;;;;;;;10.66;71.22;100293.19;5012028;28;20152;-68
2023/12/21 04:11:41;;;;;;;81.03;77.38;;;;;;;10.65;71.32;100292.38;5019724;28;20458;-71
2023/12/21 04:14:06;;;;;;;82.78;78.90;;;;;;;10.66;71.07;100290.50;5018655;28;20034;-69
2023/12/21 04:16:32;;;;;;;85.03;81.05;;;;;;;10.67;71.27;100275.94;5019517;28;20405;-69
2023/12/21 04:18:58;;;;;;;85.93;80.72;;;;;;;10.68;71.19;100275.66;5024420;28;20053;-68
2023/12/21 04:21:24;;;;;;;86.57;82.45;;;;;;;10.70;70.90;100262.72;5012543;28;20034;-69
2023/12/21 04:23:49;;;;;;;84.22;79.53;;;;;;;10.70;71.18;100260.03;5031227;28;20452;-69
2023/12/21 04:26:22;;;;;;;82.57;78.45;;;;;;;10.73;71.31;100247.88;5013608;28;20034;-69
2023/12/21 04:28:48;;;;;;;83.15;78.57;;;;;;;10.73;71.06;100248.69;5012077;28;20030;-68
2023/12/21 04:31:21;;;;;;;81.75;78.03;;;;;;;10.71;71.00;100245.47;5015307;28;20061;-68
2023/12/21 04:33:48;;;;;;;83.63;79.40;;;;;;;10.71;71.19;100234.66;5029519;28;20036;-70
2023/12/21 04:36:14;;;;;;;84.07;79.65;;;;;;;10.72;71.18;100230.88;5035091;28;20057;-68
2023/12/21 04:38:39;;;;;;;83.95;79.97;;;;;;;10.72;70.83;100222.78;5019139;28;20037;-69
2023/12/21 04:41:05;;;;;;;84.32;80.13;;;;;;;10.72;70.94;100214.66;5012544;28;20702;-69
2023/12/21 04:43:30;;;;;;;81.32;77.43;;;;;;;10.73;71.21;100216.28;5023526;28;20125;-69
2023/12/21 04:45:56;;;;;;;90.85;86.32;;;;;;;10.74;71.25;100219.81;5015028;28;20088;-71
2023/12/21 04:48:21;;;;;;;80.60;76.70;;;;;;;10.74;71.18;100190.09;5011554;28;20037;-69
2023/12/21 04:50:46;;;;;;;81.93;77.82;;;;;;;10.73;71.21;100194.66;5011968;28;20467;-69
2023/12/21 04:53:12;;;;;;;83.47;79.57;;;;;;;10.73;71.04;100166.84;5028518;28;20033;-71
2023/12/21 04:55:37;;;;;;;84.90;80.95;;;;;;;10.75;71.16;100175.50;5029486;28;20065;-69
2023/12/21 04:58:03;;;;;;;86.07;81.80;;;;;;;10.77;71.19;100171.47;5011529;28;20433;-70
2023/12/21 05:00:29;;;;;;;86.97;82.78;;;;;;;10.76;71.22;100164.47;5016360;28;20057;-69
2023/12/21 05:02:55;;;;;;;82.28;78.65;;;;;;;10.76;71.07;100167.16;5011195;28;20034;-71
2023/12/21 05:05:21;;;;;;;88.00;83.38;;;;;;;10.76;70.94;100155.53;5019293;28;20045;-69
2023/12/21 05:07:47;;;;;;;87.40;83.43;;;;;;;10.78;71.09;100153.38;5010496;28;20038;-69
2023/12/21 05:10:12;;;;;;;88.63;84.35;;;;;;;10.80;71.00;100146.66;5015302;28;20034;-70
2023/12/21 05:12:38;;;;;;;82.38;78.57;;;;;;;10.78;71.00;100156.91;5012736;28;20371;-69
2023/12/21 05:15:03;;;;;;;86.22;81.57;;;;;;;10.78;71.19;100166.88;5034666;28;20033;-69
2023/12/21 05:17:29;;;;;;;86.15;82.25;;;;;;;10.76;71.13;100172.56;5016923;28;20046;-69
2023/12/21 05:19:54;;;;;;;85.10;80.75;;;;;;;10.78;71.03;100172.28;5021774;28;20049;-69
2023/12/21 05:22:20;;;;;;;86.53;82.22;;;;;;;10.79;70.96;100169.34;5014685;28;20404;-70
2023/12/21 05:24:45;;;;;;;84.57;80.88;;;;;;;10.79;71.27;100163.94;5021973;28;20025;-67
2023/12/21 05:27:11;;;;;;;81.45;77.28;;;;;;;10.77;70.74;100147.16;5033079;28;20143;-69
2023/12/21 05:29:36;;;;;;;86.65;82.47;;;;;;;10.77;71.05;100143.66;5032928;28;20041;-68
2023/12/21 05:32:01;;;;;;;84.63;80.60;;;;;;;10.77;71.16;100128.25;5033942;28;20477;-70
2023/12/21 05:34:27;;;;;;;82.82;79.05;;;;;;;10.77;71.15;100113.94;5033905;28;20029;-69
2023/12/21 05:36:52;;;;;;;82.57;78.47;;;;;;;10.77;71.19;100109.34;5023116;28;20378;-68
2023/12/21 05:39:18;;;;;;;81.63;77.63;;;;;;;10.78;71.11;100108.25;5014446;28;20394;-68
2023/12/21 05:41:44;;;;;;;81.68;78.05;;;;;;;10.79;71.16;100106.41;5014624;28;20034;-69
2023/12/21 05:44:10;;;;;;;86.68;82.57;;;;;;;10.79;71.23;100120.72;5027012;28;20470;-69
2023/12/21 05:46:35;;;;;;;84.53;80.53;;;;;;;10.79;71.20;100136.13;5028946;28;20033;-69
2023/12/21 05:49:01;;;;;;;83.68;79.95;;;;;;;10.81;71.13;100134.78;5013876;28;20040;-69
2023/12/21 05:51:26;;;;;;;84.03;80.00;;;;;;;10.82;71.18;100146.41;5013994;28;20038;-69
2023/12/21 05:53:51;;;;;;;86.53;82.72;;;;;;;10.83;71.08;100129.09;5022416;28;20474;-69
2023/12/21 05:56:17;;;;;;;84.93;80.45;;;;;;;10.84;71.36;100130.75;5032970;28;20043;-69
2023/12/21 05:58:42;;;;;;;83.95;79.95;;;;;;;10.85;71.09;100134.25;5032378;28;20473;-69
2023/12/21 06:01:09;;;;;;;87.78;83.53;;;;;;;10.85;71.19;100113.47;5032679;28;20034;-67
2023/12/21 06:03:34;;;;;;;84.82;80.70;;;;;;;10.87;71.15;100132.13;5033288;28;20044;-70
2023/12/21 06:06:00;;;;;;;82.30;78.63;;;;;;;10.89;71.25;100143.50;5013898;28;20041;-69
2023/12/21 06:08:26;;;;;;;85.47;81.43;;;;;;;10.89;71.26;100138.09;5025213;28;20520;-69
2023/12/21 06:10:52;;;;;;;87.82;83.72;;;;;;;10.90;71.31;100118.91;5014836;28;20532;-68
2023/12/21 06:13:17;;;;;;;89.32;84.93;;;;;;;10.91;71.22;100104.31;5020750;28;20026;-70
2023/12/21 06:15:42;;;;;;;85.95;81.75;;;;;;;10.91;71.47;100098.09;5014245;28;20037;-71
2023/12/21 06:18:09;;;;;;;83.55;79.25;;;;;;;10.92;71.37;100097.03;5026383;28;20033;-68
2023/12/21 06:20:35;;;;;;;86.55;82.60;;;;;;;10.90;71.05;100077.56;5016511;28;20076;-69
2023/12/21 06:23:01;;;;;;;88.15;83.88;;;;;;;10.92;71.28;100064.59;5027686;28;20417;-69
2023/12/21 06:25:28;;;;;;;84.75;80.82;;;;;;;10.91;71.34;100065.66;5028968;28;20046;-68
2023/12/21 06:27:54;;;;;;;87.75;83.80;;;;;;;10.88;71.32;100066.19;5020479;28;20025;-68
2023/12/21 06:30:20;;;;;;;88.25;84.15;;;;;;;10.87;71.34;100075.38;5023901;28;20497;-68
2023/12/21 06:32:45;;;;;;;85.07;81.22;;;;;;;10.86;71.40;100065.63;5028806;28;20124;-68
2023/12/21 06:35:10;;;;;;;89.30;84.90;;;;;;;10.86;71.41;100069.16;5023245;28;20502;-70
2023/12/21 06:37:36;;;;;;;86.68;82.72;;;;;;;10.88;71.42;100093.22;5019308;28;20120;-68
2023/12/21 06:40:04;;;;;;;84.03;80.28;;;;;;;10.90;71.39;100094.56;5013644;28;20026;-69
2023/12/21 06:42:29;;;;;;;83.35;79.35;;;;;;;10.92;71.43;100070.00;5013103;28;20390;-67
2023/12/21 06:44:54;;;;;;;86.10;82.30;;;;;;;10.95;71.20;100061.38;5017367;28;20073;-69
2023/12/21 06:47:22;;;;;;;87.75;83.43;;;;;;;10.96;71.38;100055.72;5015824;28;20461;-69
2023/12/21 06:49:47;;;;;;;90.57;86.18;;;;;;;10.97;71.45;100059.22;5012344;28;20036;-69
2023/12/21 06:52:13;;;;;;;90.45;86.30;;;;;;;10.98;71.42;100036.53;5028863;28;20029;-69
2023/12/21 06:54:38;;;;;;;90.75;85.65;;;;;;;11.00;71.38;100028.97;5029151;28;20084;-72
2023/12/21 06:57:04;;;;;;;86.13;82.28;;;;;;;11.01;71.27;100025.19;5026767;28;20041;-69
2023/12/21 06:59:30;;;;;;;88.00;83.88;;;;;;;11.00;71.08;100021.66;5025921;28;20056;-69
2023/12/21 07:01:56;;;;;;;88.22;84.10;;;;;;;11.01;71.36;100007.09;5024220;28;20375;-70
2023/12/21 07:04:21;;;;;;;89.72;85.50;;;;;;;11.01;71.06;99998.16;5026870;28;20500;-73
2023/12/21 07:06:47;;;;;;;87.05;83.15;;;;;;;11.04;71.25;99997.66;5027905;28;20120;-68
2023/12/21 07:09:14;;;;;;;88.13;84.05;;;;;;;11.04;71.06;99994.94;5025732;28;20273;-70
2023/12/21 07:11:39;;;;;;;89.72;85.72;;;;;;;11.03;71.12;99996.81;5024972;28;20049;-73
2023/12/21 07:14:05;;;;;;;85.65;81.90;;;;;;;11.05;70.96;99999.25;5029056;28;20033;-70
2023/12/21 07:16:31;;;;;;;90.53;85.70;;;;;;;11.05;71.09;99993.88;5025689;28;20567;-69
2023/12/21 07:18:56;;;;;;;86.97;82.55;;;;;;;11.06;70.92;100000.88;5029722;28;20042;-70
2023/12/21 07:21:22;;;;;;;90.25;86.20;;;;;;;11.03;71.12;99961.69;5027492;28;20040;-69
2023/12/21 07:23:47;;;;;;;87.63;83.78;;;;;;;11.05;71.22;99964.13;5027661;28;20068;-70
2023/12/21 07:26:12;;;;;;;91.45;87.38;;;;;;;11.04;71.15;99960.63;5026716;28;20047;-69
2023/12/21 07:28:39;;;;;;;88.72;84.65;;;;;;;11.05;71.03;99962.25;5027784;28;20038;-70
2023/12/21 07:31:05;;;;;;;89.03;85.03;;;;;;;11.09;71.11;99956.28;5028586;28;20048;-69
2023/12/21 07:33:31;;;;;;;87.53;83.72;;;;;;;11.11;71.08;99948.75;5030103;28;20092;-68
2023/12/21 07:35:56;;;;;;;88.32;84.43;;;;;;;11.11;70.99;99946.03;5026205;28;20104;-70
2023/12/21 07:38:22;;;;;;;91.50;87.00;;;;;;;11.09;71.05;99930.09;5024746;28;20030;-69
2023/12/21 07:40:47;;;;;;;86.10;82.28;;;;;;;11.07;70.95;99937.66;5025907;28;20044;-69
2023/12/21 07:43:13;;;;;;;89.05;84.95;;;;;;;11.09;71.06;99954.44;5026977;28;20037;-70
2023/12/21 07:45:38;;;;;;;87.40;83.50;;;;;;;11.07;71.09;99945.78;5031319;28;20045;-68
2023/12/21 07:48:04;;;;;;;91.47;87.18;;;;;;;11.08;71.09;99960.09;5026704;28;20036;-70
2023/12/21 07:50:29;;;;;;;92.13;87.28;;;;;;;11.07;71.34;99955.78;5028653;28;20044;-69
2023/12/21 07:52:56;;;;;;;87.00;82.80;;;;;;;11.05;71.40;99942.50;5024754;28;20061;-69
2023/12/21 07:55:25;;;;;;;89.55;85.40;;;;;;;11.04;71.47;99939.00;5026215;28;20480;-70
2023/12/21 07:57:50;;;;;;;85.95;81.95;;;;;;;11.03;71.69;99941.97;5022720;28;20041;-70
2023/12/21 08:00:16;;;;;;;90.47;86.40;;;;;;;11.03;71.67;99936.56;5025516;28;20151;-69
2023/12/21 08:02:44;;;;;;;89.35;85.32;;;;;;;11.03;71.55;99941.97;5029189;28;20061;-68
2023/12/21 08:05:12;;;;;;;89.53;85.53;;;;;;;11.03;71.93;99931.16;5021769;28;20033;-70
2023/12/21 08:07:39;;;;;;;91.82;87.80;;;;;;;11.03;71.46;99926.56;5023144;28;20033;-70
2023/12/21 08:10:08;;;;;;;87.93;83.93;;;;;;;11.04;71.50;99913.88;5022055;28;20472;-69
2023/12/21 08:12:38;;;;;;;92.07;87.78;;;;;;;11.03;71.53;99926.56;5025354;28;20041;-69
2023/12/21 08:15:03;;;;;;;88.50;84.38;;;;;;;11.04;71.63;99921.97;5027822;28;20394;-68
2023/12/21 08:17:30;;;;;;;89.97;85.60;;;;;;;11.05;71.87;99923.59;5030598;28;20030;-69
2023/12/21 08:19:55;;;;;;;94.28;89.95;;;;;;;11.03;71.80;99907.63;5027257;28;20124;-69
2023/12/21 08:22:22;;;;;;;88.35;84.40;;;;;;;11.04;71.74;99911.19;5026483;28;20590;-69
2023/12/21 08:24:48;;;;;;;85.43;81.70;;;;;;;11.05;71.63;99920.88;5025789;28;20531;-70
2023/12/21 08:27:13;;;;;;;86.07;82.30;;;;;;;11.04;71.54;99911.97;5030648;28;20064;-70
2023/12/21 08:29:39;;;;;;;89.57;85.38;;;;;;;11.07;71.73;99910.63;5027360;28;20083;-68
2023/12/21 08:32:05;;;;;;;89.18;85.28;;;;;;;11.09;71.57;99905.78;5025361;28;20029;-69
2023/12/21 08:34:31;;;;;;;89.07;84.88;;;;;;;11.10;71.53;99899.28;5024620;28;20459;-70
2023/12/21 08:36:56;;;;;;;87.95;84.13;;;;;;;11.10;71.88;99893.06;5027329;28;20057;-68
2023/12/21 08:39:23;;;;;;;88.38;84.38;;;;;;;11.06;71.86;99873.84;5021284;28;20528;-69
2023/12/21 08:41:48;;;;;;;90.47;86.35;;;;;;;11.03;71.95;99890.63;5022523;28;20470;-69
2023/12/21 08:44:14;;;;;;;94.72;89.78;;;;;;;11.02;72.25;99870.91;5026899;28;20025;-70
2023/12/21 08:46:43;;;;;;;86.47;82.18;;;;;;;11.01;72.66;99855.78;5025951;28;20121;-69
2023/12/21 08:49:11;;;;;;;88.93;85.03;;;;;;;11.02;72.40;99879.00;5030220;28;20394;-69
2023/12/21 08:51:38;;;;;;;92.80;88.50;;;;;;;11.06;72.41;99884.66;5028393;28;20045;-69
2023/12/21 08:54:04;;;;;;;90.93;86.75;;;;;;;11.06;72.19;99871.16;5027783;28;20169;-70
2023/12/21 08:56:31;;;;;;;84.90;81.10;;;;;;;11.07;72.42;99863.88;5026887;28;20026;-70
2023/12/21 08:58:57;;;;;;;92.25;88.00;;;;;;;11.08;72.36;99865.50;5028141;28;20042;-71
2023/12/21 09:01:22;;;;;;;89.15;85.05;;;;;;;11.09;72.48;99867.94;5029874;28;20048;-69
2023/12/21 09:03:47;;;;;;;88.32;84.03;;;;;;;11.11;72.41;99879.28;5029562;28;20044;-69
2023/12/21 09:06:13;;;;;;;88.30;84.40;;;;;;;11.13;72.53;99882.53;5029329;28;20045;-70
2023/12/21 09:08:38;;;;;;;87.68;83.32;;;;;;;11.15;72.20;99857.94;5031074;28;20083;-70
2023/12/21 09:11:04;;;;;;;88.15;84.18;;;;;;;11.16;72.15;99867.66;5026917;28;20466;-72
2023/12/21 09:13:30;;;;;;;89.22;85.13;;;;;;;11.17;72.01;99867.41;5029418;28;20041;-70
2023/12/21 09:15:55;;;;;;;89.90;85.78;;;;;;;11.16;71.76;99882.00;5026347;28;20545;-69
2023/12/21 09:18:21;;;;;;;88.03;84.18;;;;;;;11.16;72.07;99864.97;5027687;28;20037;-70
2023/12/21 09:20:46;;;;;;;88.57;84.38;;;;;;;11.16;72.07;99854.16;5026476;28;20529;-69
2023/12/21 09:23:12;;;;;;;91.85;87.65;;;;;;;11.20;72.00;99841.72;5028717;28;20522;-70
2023/12/21 09:25:38;;;;;;;91.00;86.85;;;;;;;11.19;72.01;99832.81;5026793;28;20052;-70
2023/12/21 09:28:04;;;;;;;91.30;87.18;;;;;;;11.19;72.13;99843.63;5028472;28;20033;-69
2023/12/21 09:30:30;;;;;;;92.82;88.53;;;;;;;11.20;72.10;99826.31;5027281;28;20041;-70
2023/12/21 09:32:59;;;;;;;92.85;88.22;;;;;;;11.20;72.07;99823.63;5026010;28;20033;-71
2023/12/21 09:35:25;;;;;;;90.47;86.43;;;;;;;11.23;72.23;99830.38;5025926;28;20445;-71
2023/12/21 09:37:51;;;;;;;91.15;86.53;;;;;;;11.23;72.04;99823.06;5026429;28;20058;-70
2023/12/21 09:40:17;;;;;;;89.60;85.70;;;;;;;11.23;71.72;99825.78;5029284;28;20965;-70
2023/12/21 09:42:46;;;;;;;98.05;93.45;;;;;;;11.22;72.11;99848.50;5027296;28;20052;-70
2023/12/21 09:45:13;;;;;;;92.15;87.35;;;;;;;11.22;71.90;99843.09;5025456;28;20036;-70
2023/12/21 09:47:41;;;;;;;94.95;90.55;;;;;;;11.22;71.88;99843.09;5026376;28;20152;-70
2023/12/21 09:50:08;;;;;;;90.63;86.43;;;;;;;11.23;72.00;99824.97;5028755;28;20575;-70
2023/12/21 09:52:37;;;;;;;91.32;87.03;;;;;;;11.23;72.18;99814.97;5027508;28;20038;-71
2023/12/21 09:55:03;;;;;;;;;;;;;;;11.22;72.09;99818.75;5029908;28;20124;-69
2023/12/21 09:57:29;;;;;;;85.70;81.82;;;;;;;11.20;71.88;99820.13;5024209;28;19932;-70
2023/12/21 09:59:56;;;;;;;88.50;84.15;;;;;;;11.19;72.35;99804.97;5023240;28;20030;-73
2023/12/21 10:02:26;;;;;;;88.10;84.13;;;;;;;11.18;72.09;99814.16;5026530;28;20025;-69
2023/12/21 10:04:52;;;;;;;88.85;84.85;;;;;;;11.19;72.42;99826.59;5022385;28;20038;-70
2023/12/21 10:07:17;;;;;;;90.13;85.78;;;;;;;11.22;72.50;99834.16;5025248;28;20037;-70
2023/12/21 10:09:43;;;;;;;91.32;86.93;;;;;;;11.26;72.18;99838.78;5021629;28;20044;-71
2023/12/21 10:12:09;;;;;;;89.93;85.90;;;;;;;11.26;71.91;99843.34;5019386;28;20029;-71
2023/12/21 10:14:34;;;;;;;91.10;86.90;;;;;;;11.27;72.00;99834.97;5011289;28;20044;-70
2023/12/21 10:17:01;;;;;;;90.50;86.53;;;;;;;11.23;72.16;99823.06;5012573;28;20030;-70
2023/12/21 10:19:26;;;;;;;90.80;86.78;;;;;;;11.24;72.35;99834.72;5027220;28;20041;-71
2023/12/21 10:21:53;;;;;;;91.45;87.15;;;;;;;11.24;72.34;99840.94;5030136;28;20046;-70
2023/12/21 10:24:19;;;;;;;94.03;89.72;;;;;;;11.24;71.93;99824.72;5030305;28;20103;-71
2023/12/21 10:26:45;;;;;;;92.03;87.45;;;;;;;11.25;72.35;99829.03;5031586;28;20065;-70
2023/12/21 10:29:15;;;;;;;92.18;88.05;;;;;;;11.24;72.45;99830.13;5033105;28;20042;-69
2023/12/21 10:31:47;;;;;;;91.22;87.18;;;;;;;11.29;72.60;99831.19;5020432;28;20034;-70
2023/12/21 10:34:13;;;;;;;91.18;87.07;;;;;;;11.27;72.30;99824.16;5015474;28;20041;-70
2023/12/21 10:36:42;;;;;;;92.13;88.07;;;;;;;11.32;72.31;99833.38;5011453;28;20061;-70
2023/12/21 10:39:10;;;;;;;92.18;87.80;;;;;;;11.34;72.31;99828.47;5015082;28;20519;-71
2023/12/21 10:41:35;;;;;;;92.28;88.18;;;;;;;11.35;72.64;99817.41;5018349;28;20342;-71
2023/12/21 10:44:01;;;;;;;93.18;88.90;;;;;;;11.36;72.58;99800.09;5017007;28;20038;-70
2023/12/21 10:46:30;;;;;;;90.65;86.45;;;;;;;11.38;72.65;99797.94;5030957;28;20025;-70
2023/12/21 10:48:59;;;;;;;93.45;89.22;;;;;;;11.43;72.47;99821.47;5020061;28;20403;-70
2023/12/21 10:51:26;;;;;;;;;;;;;;;11.45;72.72;99812.00;5016539;28;20037;-69
2023/12/21 10:53:52;;;;;;;84.63;80.47;;;;;;;11.48;72.67;99830.38;5021882;28;19928;-69
2023/12/21 10:56:18;;;;;;;90.65;86.10;;;;;;;11.49;72.67;99809.59;5021995;28;20042;-69
2023/12/21 10:58:44;;;;;;;92.28;88.15;;;;;;;11.51;72.73;99804.69;5011253;28;20041;-69
2023/12/21 11:01:09;;;;;;;91.65;87.45;;;;;;;11.51;72.55;99810.09;5031307;28;20072;-68
2023/12/21 11:03:36;;;;;;;91.50;87.45;;;;;;;11.52;72.58;99798.22;5016957;28;20466;-69
2023/12/21 11:06:03;;;;;;;93.03;88.80;;;;;;;11.52;72.39;99786.59;5014781;28;20041;-68